Liberty, Kentucky
Current Conditions -  °F | °C
As of 2:35 PM on Monday 22 Dec 2014 (Local Time) from KDVK Reporting Station
Overcast Overcast  
Wind Chill: 54°   Ceiling: 11000
Heat Index: 54°   Visibility: 10mi
Dew Point: 41°   Wind: 10mph
Humidity: 62%   Direction: 160°SSE
Pressure: 29.84"   Gusts: NA
Location:  37.32°N, 84.94°W
Report Text: KDVK 221935Z AUTO 16009KT 10SM OVC110 12/05 A2984 RMK AO2
Loading
Personal Weather Stations






























Interactive Weather Map New forecast layout! Learn more

10-Day Weather Forecast

Advertisements
Track Severe Weather on mobile